Time;durP1;ratioP1;P1;durP2;ratioP2;P2;SDS_P1;SDS_P2;PMS_P1;PMS_P2;Temp;Humidity;BMP_temperature;BMP_pressure;BME280_temperature;BME280_humidity;BME280_pressure;Samples;Min_cycle;Max_cycle;Signal;HPM_P1;HPM_P2
2023/01/13 00:00:00;;;;;;;13.13;4.80;;;;;;;7.91;62.43;98971.69;4410423;32;20563;-85
2023/01/13 00:02:26;;;;;;;16.60;7.15;;;;;;;8.04;62.22;98979.91;4424084;32;20141;-85
2023/01/13 00:04:51;;;;;;;15.20;5.70;;;;;;;7.59;63.38;98983.44;4424009;32;20418;-84
2023/01/13 00:07:17;;;;;;;12.52;3.97;;;;;;;7.56;63.34;98981.81;4409930;32;20165;-83
2023/01/13 00:09:42;;;;;;;11.57;4.35;;;;;;;7.71;62.52;98967.25;4424022;32;20086;-85
2023/01/13 00:12:08;;;;;;;10.77;4.12;;;;;;;7.73;62.99;98973.28;4424009;32;20515;-85
2023/01/13 00:14:36;;;;;;;10.95;3.60;;;;;;;7.37;64.03;98965.09;4423829;32;20131;-85
2023/01/13 00:17:03;;;;;;;15.48;6.32;;;;;;;7.94;62.22;98965.44;4423965;32;20098;-85
2023/01/13 00:19:28;;;;;;;11.30;4.22;;;;;;;7.87;61.36;98967.47;4410135;32;20179;-86
2023/01/13 00:21:53;;;;;;;14.73;5.70;;;;;;;7.97;61.36;98973.22;4423642;32;20081;-86
2023/01/13 00:24:19;;;;;;;13.55;4.65;;;;;;;7.94;61.00;98966.31;4423846;32;20116;-86
2023/01/13 00:26:44;;;;;;;12.32;4.60;;;;;;;7.18;63.22;98959.72;4435594;32;20090;-86
2023/01/13 00:29:10;;;;;;;11.55;4.18;;;;;;;7.92;61.54;98952.41;4423677;32;20110;-86
2023/01/13 00:31:35;;;;;;;12.10;4.18;;;;;;;7.54;62.44;98962.66;4409961;32;20116;-86
2023/01/13 00:34:01;;;;;;;11.20;3.70;;;;;;;7.51;62.51;98956.69;4437533;32;20116;-86
2023/01/13 00:36:27;;;;;;;12.68;3.67;;;;;;;7.47;62.46;98953.34;4426122;32;20090;-86
2023/01/13 00:38:53;;;;;;;11.98;4.72;;;;;;;7.24;63.44;98956.84;4426130;32;20382;-86
2023/01/13 00:41:20;;;;;;;10.25;3.78;;;;;;;7.62;62.34;98952.72;4426147;32;20112;-86
2023/01/13 00:43:47;;;;;;;12.00;4.30;;;;;;;7.73;61.94;98951.47;4425834;32;20085;-86
2023/01/13 00:46:14;;;;;;;16.50;7.68;;;;;;;7.79;61.53;98953.84;4411745;32;20105;-86
2023/01/13 00:48:39;;;;;;;10.90;4.00;;;;;;;8.25;60.08;98959.81;4411790;32;20685;-86
2023/01/13 00:51:11;;;;;;;10.95;3.90;;;;;;;7.99;60.82;98953.84;4425736;32;20155;-86
2023/01/13 00:53:38;;;;;;;13.88;4.68;;;;;;;8.26;60.10;98943.13;4411660;32;20171;-87
2023/01/13 00:56:10;;;;;;;11.45;4.60;;;;;;;7.92;61.32;98951.53;4425840;32;20508;-87
2023/01/13 00:58:35;;;;;;;11.77;4.43;;;;;;;7.44;62.12;98956.09;4399291;32;20098;-87
2023/01/13 01:01:05;;;;;;;12.55;3.90;;;;;;;8.06;60.42;98939.56;4425683;32;20085;-87
2023/01/13 01:03:31;;;;;;;10.70;3.50;;;;;;;7.73;61.30;98946.22;4411778;32;20143;-87
2023/01/13 01:06:03;;;;;;;21.85;10.68;;;;;;;7.41;61.97;98945.72;4425565;32;20420;-87
2023/01/13 01:08:28;;;;;;;14.87;4.80;;;;;;;8.20;59.46;98940.75;4425574;32;20155;-86
2023/01/13 01:11:12;;;;;;;18.60;8.57;;;;;;;7.38;61.82;98949.31;4425596;32;20125;-86
2023/01/13 01:13:38;;;;;;;19.37;9.32;;;;;;;7.39;62.00;98952.78;4425709;32;20124;-83
2023/01/13 01:16:06;;;;;;;26.98;13.43;;;;;;;7.98;59.61;98944.28;4425486;32;20086;-83
2023/01/13 01:18:37;;;;;;;27.25;13.73;;;;;;;7.78;59.81;98937.22;4411907;32;20623;-85
2023/01/13 01:21:02;;;;;;;20.37;10.00;;;;;;;7.67;60.14;98940.31;4425790;32;20097;-85
2023/01/13 01:23:29;;;;;;;12.73;5.00;;;;;;;7.14;62.13;98940.63;4425905;32;20380;-85
2023/01/13 01:26:02;;;;;;;14.25;6.05;;;;;;;6.59;63.75;98940.91;4411837;32;20102;-85
2023/01/13 01:28:27;;;;;;;22.58;12.30;;;;;;;7.41;61.30;98930.84;4425951;32;20182;-85
2023/01/13 01:30:57;;;;;;;19.35;8.38;;;;;;;7.60;60.68;98927.50;4425827;32;20115;-85
2023/01/13 01:33:23;;;;;;;20.12;11.23;;;;;;;7.22;61.78;98933.34;4412248;32;20097;-85
2023/01/13 01:35:48;;;;;;;27.20;13.82;;;;;;;7.07;62.40;98940.00;4411832;32;20156;-85
2023/01/13 01:38:13;;;;;;;28.85;15.60;;;;;;;7.16;61.85;98927.47;4411718;32;20131;-84
2023/01/13 01:40:39;;;;;;;28.73;15.65;;;;;;;7.76;60.05;98927.72;4425775;32;20475;-85
2023/01/13 01:45:59;;;;;;;29.65;14.70;;;;;;;7.70;60.26;98933.22;4425169;32;20156;-85
2023/01/13 01:48:26;;;;;;;28.40;15.93;;;;;;;7.94;59.73;98931.34;4411458;32;20106;-85
2023/01/13 01:50:51;;;;;;;27.70;15.20;;;;;;;7.59;61.21;98924.03;4411505;32;20497;-84
2023/01/13 01:53:20;;;;;;;28.20;14.70;;;;;;;7.37;61.70;98924.00;4411680;32;20085;-84
2023/01/13 01:55:45;;;;;;;29.48;14.90;;;;;;;7.73;60.61;98920.84;4411495;32;20118;-86
2023/01/13 01:58:36;;;;;;;28.15;15.55;;;;;;;7.58;60.83;98917.06;4411666;32;20149;-85
2023/01/13 02:01:02;;;;;;;33.47;15.82;;;;;;;7.63;60.77;98909.00;4424702;32;20094;-86
2023/01/13 02:03:28;;;;;;;32.25;15.55;;;;;;;7.37;61.59;98923.16;4425238;32;20089;-86
2023/01/13 02:05:54;;;;;;;28.85;15.32;;;;;;;7.51;61.21;98910.34;4425250;32;20113;-86
2023/01/13 02:08:19;;;;;;;29.27;16.00;;;;;;;7.37;61.61;98916.16;4411170;32;20395;-86
2023/01/13 02:10:47;;;;;;;28.27;15.30;;;;;;;7.62;60.94;98912.56;4425309;32;20077;-83
2023/01/13 02:13:13;;;;;;;30.52;16.42;;;;;;;7.47;61.56;98914.00;4411345;32;20093;-82
2023/01/13 02:16:01;;;;;;;32.88;16.05;;;;;;;7.61;61.02;98908.22;4425240;32;20124;-82
2023/01/13 02:18:52;;;;;;;31.27;15.35;;;;;;;7.70;61.09;98907.00;4411389;32;20159;-82
2023/01/13 02:21:27;;;;;;;30.27;16.52;;;;;;;7.73;60.96;98904.25;4425223;32;20089;-82
2023/01/13 02:27:16;;;;;;;25.88;15.23;;;;;;;7.08;62.99;98906.81;4425068;32;20128;-82
2023/01/13 02:33:12;;;;;;;27.45;13.50;;;;;;;7.80;61.12;98889.97;4425106;32;20108;-82
2023/01/13 02:35:58;;;;;;;27.58;13.32;;;;;;;7.82;61.17;98893.38;4411174;32;20085;-82
2023/01/13 02:38:32;;;;;;;27.02;13.32;;;;;;;7.89;61.09;98889.59;4411099;32;20128;-82
2023/01/13 02:44:06;;;;;;;;;;;;;;;7.95;60.69;98885.84;4413661;32;20104;-82
2023/01/13 02:46:47;;;;;;;30.02;15.82;;;;;;;7.96;60.45;98883.16;4412157;32;19969;-84
2023/01/13 02:49:18;;;;;;;27.58;15.23;;;;;;;7.97;60.19;98886.63;4411143;32;20140;-84
2023/01/13 02:51:45;;;;;;;27.70;15.48;;;;;;;7.93;60.12;98880.66;4411052;32;20124;-84
2023/01/13 02:54:17;;;;;;;31.12;15.65;;;;;;;7.96;60.02;98883.16;4410957;32;20097;-84
2023/01/13 02:56:46;;;;;;;31.10;16.30;;;;;;;8.01;60.01;98888.22;4398074;32;20163;-84
2023/01/13 02:59:12;;;;;;;33.90;16.37;;;;;;;7.99;60.09;98882.19;4411050;32;20461;-83
2023/01/13 03:01:37;;;;;;;34.40;17.77;;;;;;;8.00;60.02;98882.13;4411182;32;20108;-83
2023/01/13 03:04:33;;;;;;;31.95;17.35;;;;;;;7.90;60.09;98878.19;4409671;32;20086;-82
2023/01/13 03:07:11;;;;;;;32.10;17.52;;;;;;;8.01;59.72;98875.94;4413570;32;20432;-81
2023/01/13 03:09:52;;;;;;;32.88;17.40;;;;;;;8.00;59.71;98873.41;4408913;32;20492;-84
2023/01/13 03:12:29;;;;;;;31.50;17.95;;;;;;;7.98;59.67;98870.84;4421744;32;20400;-84
2023/01/13 03:15:17;;;;;;;29.63;16.27;;;;;;;7.84;60.03;98870.56;4408682;32;20115;-82
2023/01/13 03:18:08;;;;;;;57.33;19.15;;;;;;;7.77;60.14;98867.34;4408492;32;20094;-86
2023/01/13 03:20:36;;;;;;;35.40;18.05;;;;;;;7.72;60.10;98865.84;4421863;32;20085;-85
2023/01/13 03:23:06;;;;;;;34.28;17.90;;;;;;;7.67;59.82;98866.88;4395495;32;20093;-85
2023/01/13 03:25:35;;;;;;;42.45;18.10;;;;;;;7.60;60.02;98864.56;4422544;32;20112;-84
2023/01/13 03:28:09;;;;;;;32.42;18.10;;;;;;;7.65;60.06;98866.09;4408518;32;20082;-83
2023/01/13 03:30:45;;;;;;;33.75;18.52;;;;;;;7.61;60.03;98861.03;4422019;32;20097;-82
2023/01/13 03:33:23;;;;;;;32.05;16.98;;;;;;;7.46;60.63;98862.53;4396007;32;20102;-83
2023/01/13 03:35:51;;;;;;;32.97;16.83;;;;;;;7.60;60.22;98862.78;4408720;32;20119;-83
2023/01/13 03:38:28;;;;;;;29.70;17.58;;;;;;;7.54;60.47;98862.22;4422669;32;20077;-82
2023/01/13 03:40:57;;;;;;;34.47;17.35;;;;;;;7.67;60.18;98855.56;4408522;32;20128;-83
2023/01/13 03:46:32;;;;;;;34.70;18.73;;;;;;;7.56;60.51;98855.97;4421064;32;20124;-83
2023/01/13 03:48:59;;;;;;;32.65;17.65;;;;;;;7.73;59.66;98851.81;4408300;32;20093;-82
2023/01/13 03:51:26;;;;;;;31.42;16.77;;;;;;;6.94;61.99;98862.81;4408308;32;20450;-83
2023/01/13 03:53:56;;;;;;;;;;;;;;;7.32;60.75;98849.97;4409064;32;20417;-84
2023/01/13 03:56:27;;;;;;;33.95;17.55;;;;;;;7.50;60.29;98858.00;4406779;32;20049;-85
2023/01/13 03:58:53;;;;;;;35.83;17.42;;;;;;;7.50;60.31;98858.84;4408209;32;20089;-86
2023/01/13 04:01:47;;;;;;;50.97;18.25;;;;;;;7.28;60.78;98862.34;4408153;32;20121;-86
2023/01/13 04:04:43;;;;;;;59.90;19.35;;;;;;;7.33;60.72;98850.81;4419196;32;20120;-85
2023/01/13 04:07:17;;;;;;;39.33;18.23;;;;;;;6.80;61.94;98863.34;4342732;33;20144;-86
2023/01/13 04:09:58;;;;;;;45.95;18.33;;;;;;;7.10;61.50;98870.94;4346750;33;20134;-86
2023/01/13 04:15:31;;;;;;;37.78;17.60;;;;;;;7.12;61.63;98866.47;4347055;33;20129;-87
2023/01/13 04:18:12;;;;;;;134.48;23.48;;;;;;;7.23;61.50;98868.69;4333572;33;20608;-88
2023/01/13 04:20:38;;;;;;;28.80;15.85;;;;;;;7.16;61.50;98860.19;4346098;33;21020;-87
2023/01/13 04:23:04;;;;;;;54.40;20.08;;;;;;;7.32;61.23;98859.59;4346131;33;20538;-87
2023/01/13 04:25:30;;;;;;;33.22;17.95;;;;;;;7.32;61.26;98865.72;4333068;33;20137;-87
2023/01/13 04:27:55;;;;;;;35.35;17.83;;;;;;;6.99;62.13;98862.62;4346782;33;20171;-86
2023/01/13 04:30:21;;;;;;;78.87;20.00;;;;;;;6.96;62.34;98868.00;4345782;33;20112;-86
2023/01/13 04:32:46;;;;;;;39.47;17.92;;;;;;;7.14;61.96;98869.88;4345069;33;20154;-88
2023/01/13 04:35:12;;;;;;;38.88;18.87;;;;;;;7.21;61.50;98866.13;4346133;33;20226;-89
2023/01/13 04:37:37;;;;;;;36.13;17.27;;;;;;;7.14;61.63;98869.88;4345816;33;20151;-91
2023/01/13 04:40:03;;;;;;;31.20;16.58;;;;;;;7.15;61.60;98865.53;4344905;33;20120;-90
2023/01/13 04:42:28;;;;;;;43.53;19.35;;;;;;;7.28;61.56;98867.59;4346154;33;20116;-90
2023/01/13 04:44:55;;;;;;;49.15;16.85;;;;;;;7.25;61.52;98872.09;4411078;32;20129;-83
2023/01/13 04:47:20;;;;;;;40.55;17.70;;;;;;;7.16;61.80;98880.31;4423003;32;20089;-85
2023/01/13 04:49:46;;;;;;;48.50;16.15;;;;;;;7.30;61.43;98872.75;4424406;32;20452;-86
2023/01/13 04:52:11;;;;;;;31.42;16.50;;;;;;;7.37;60.98;98870.75;4423068;32;21171;-86
2023/01/13 04:54:37;;;;;;;39.72;18.00;;;;;;;7.32;61.15;98864.81;4424358;32;20335;-87
2023/01/13 04:57:02;;;;;;;31.25;15.13;;;;;;;7.09;61.80;98875.31;4423968;32;20120;-86
2023/01/13 04:59:27;;;;;;;95.00;21.35;;;;;;;7.28;61.44;98871.97;4423160;32;20078;-89
2023/01/13 05:01:53;;;;;;;30.70;16.30;;;;;;;6.44;63.67;98876.03;4422645;32;20151;-89
2023/01/13 05:04:18;;;;;;;68.25;18.58;;;;;;;7.02;62.24;98870.38;4424129;32;20133;-86
2023/01/13 05:06:44;;;;;;;111.15;21.70;;;;;;;7.02;62.14;98873.00;4423598;32;20370;-86
2023/01/13 05:09:11;;;;;;;36.92;16.42;;;;;;;6.91;62.22;98888.25;4409758;32;20146;-85
2023/01/13 05:17:04;;;;;;;47.28;16.10;;;;;;;7.28;61.62;98875.44;4425770;32;20528;-86
2023/01/13 05:19:32;;;;;;;184.27;26.10;;;;;;;7.34;61.45;98879.59;4424514;32;20098;-87
2023/01/13 05:27:26;;;;;;;31.12;15.68;;;;;;;7.18;61.48;98891.59;4425486;32;20107;-88
2023/01/13 05:29:52;;;;;;;104.25;20.45;;;;;;;7.19;61.38;98894.16;4425489;32;20354;-88
2023/01/13 05:32:18;;;;;;;31.48;15.80;;;;;;;7.15;61.66;98895.19;4422886;32;20450;-86
2023/01/13 05:34:43;;;;;;;31.55;14.82;;;;;;;7.26;61.43;98895.63;4416968;32;20104;-86
2023/01/13 05:37:09;;;;;;;29.10;15.32;;;;;;;7.27;61.59;98894.69;4410070;32;20106;-87
2023/01/13 05:45:03;;;;;;;29.37;14.25;;;;;;;7.24;61.35;98892.22;4410196;32;20164;-89
2023/01/13 05:47:31;;;;;;;56.37;15.95;;;;;;;7.07;61.63;98897.25;4396293;32;20106;-89
2023/01/13 05:49:56;;;;;;;30.33;15.07;;;;;;;7.13;61.48;98889.16;4410013;32;20435;-90
2023/01/13 05:52:21;;;;;;;33.75;14.70;;;;;;;7.15;61.45;98884.72;4383728;32;20164;-88
2023/01/13 05:54:47;;;;;;;61.22;16.83;;;;;;;7.19;61.47;98888.06;4421371;32;20122;-86
2023/01/13 05:57:12;;;;;;;30.65;15.07;;;;;;;7.29;61.21;98881.53;4413994;32;20466;-86
2023/01/13 05:59:38;;;;;;;36.20;15.27;;;;;;;7.26;61.15;98874.66;4413912;32;20147;-86
2023/01/13 06:02:03;;;;;;;55.75;16.85;;;;;;;7.28;61.22;98875.44;4425047;32;20117;-85
2023/01/13 06:04:28;;;;;;;48.97;15.45;;;;;;;7.26;61.22;98885.16;4422794;32;20188;-95
2023/01/13 06:06:54;;;;;;;31.00;15.00;;;;;;;7.36;61.08;98882.13;4424302;32;20501;-92
2023/01/13 06:09:21;;;;;;;59.28;16.92;;;;;;;7.32;61.11;98888.41;4431068;32;20105;-95
2023/01/13 06:11:47;;;;;;;34.50;16.00;;;;;;;7.34;60.97;98881.34;4414295;32;20141;-96
2023/01/13 06:14:12;;;;;;;37.60;14.77;;;;;;;7.36;60.96;98888.25;4412119;32;20094;-95
2023/01/13 06:16:38;;;;;;;37.88;15.50;;;;;;;7.35;61.00;98889.16;4421442;32;20137;-96
2023/01/13 06:19:07;;;;;;;29.30;14.07;;;;;;;7.28;60.87;98885.94;4423266;32;20437;-87
2023/01/13 06:21:35;;;;;;;44.97;17.30;;;;;;;7.13;61.10;98890.91;4421554;32;20102;-83
2023/01/13 06:24:01;;;;;;;28.80;14.70;;;;;;;6.89;61.53;98894.44;4422269;32;20512;-89
2023/01/13 06:26:28;;;;;;;28.67;14.10;;;;;;;6.71;62.27;98891.66;4421522;32;20109;-90
2023/01/13 06:28:53;;;;;;;35.67;16.17;;;;;;;6.97;61.57;98890.66;4408170;32;20105;-82
2023/01/13 06:31:19;;;;;;;30.80;15.57;;;;;;;6.89;61.77;98891.81;4421531;32;20147;-81
2023/01/13 06:33:48;;;;;;;29.15;15.35;;;;;;;7.01;61.56;98887.00;4423036;32;20097;-87
2023/01/13 06:36:21;;;;;;;18.27;9.38;;;;;;;7.09;61.58;98893.66;4408633;32;20089;-89
2023/01/13 06:38:48;;;;;;;16.83;7.70;;;;;;;6.97;62.22;98890.66;4398277;32;20081;-82
2023/01/13 06:41:14;;;;;;;17.67;8.27;;;;;;;7.09;62.36;98893.66;4391733;32;20129;-81
2023/01/13 06:43:40;;;;;;;17.58;7.60;;;;;;;7.16;62.47;98898.66;4409768;32;20118;-81
2023/01/13 06:46:05;;;;;;;20.90;9.05;;;;;;;7.09;63.24;98898.91;4409584;32;20465;-81
2023/01/13 06:48:33;;;;;;;21.85;10.95;;;;;;;7.19;63.04;98901.16;4395885;32;20151;-82
2023/01/13 06:51:03;;;;;;;25.65;13.45;;;;;;;7.28;62.73;98899.03;4403302;32;20110;-81
2023/01/13 06:53:28;;;;;;;25.00;12.65;;;;;;;7.29;62.52;98900.72;4422383;32;20779;-83
2023/01/13 06:55:54;;;;;;;28.27;13.82;;;;;;;7.40;61.94;98902.94;4425234;32;20089;-83
2023/01/13 06:58:19;;;;;;;29.67;14.55;;;;;;;7.22;61.96;98903.66;4424725;32;20132;-81
2023/01/13 07:00:48;;;;;;;27.87;14.38;;;;;;;7.19;61.58;98906.41;4411166;32;20195;-81
2023/01/13 07:03:15;;;;;;;31.27;14.70;;;;;;;7.01;61.93;98908.81;4410977;32;455918;-81
2023/01/13 07:05:42;;;;;;;25.20;14.20;;;;;;;7.21;61.44;98909.81;4425107;32;20086;-82
2023/01/13 07:08:08;;;;;;;27.97;14.30;;;;;;;7.10;61.88;98910.22;4410586;32;20119;-82
2023/01/13 07:10:34;;;;;;;27.75;14.23;;;;;;;6.67;62.98;98914.47;4410191;32;20102;-82
2023/01/13 07:16:00;;;;;;;28.67;14.80;;;;;;;7.20;61.68;98913.34;4424765;32;20397;-81
2023/01/13 07:18:27;;;;;;;28.52;14.32;;;;;;;7.32;61.61;98918.13;4410674;32;20082;-81
2023/01/13 07:20:55;;;;;;;27.98;14.07;;;;;;;7.16;62.21;98917.00;4410844;32;20128;-81
2023/01/13 07:23:20;;;;;;;18.83;10.20;;;;;;;7.31;62.02;98912.94;4410895;32;20587;-81
2023/01/13 07:25:46;;;;;;;21.08;9.55;;;;;;;7.53;61.81;98900.66;4424770;32;20082;-81
2023/01/13 07:28:11;;;;;;;20.33;8.82;;;;;;;7.60;62.18;98903.91;4424805;32;20392;-81
2023/01/13 07:30:37;;;;;;;21.12;10.15;;;;;;;7.79;61.79;98907.47;4424587;32;20085;-81
2023/01/13 07:33:02;;;;;;;24.35;13.07;;;;;;;7.77;61.70;98896.19;4410795;32;20124;-82
2023/01/13 07:35:28;;;;;;;26.05;13.18;;;;;;;8.01;61.52;98912.66;4424708;32;20376;-82
2023/01/13 07:37:53;;;;;;;24.42;12.63;;;;;;;7.96;61.07;98911.16;4424327;32;20083;-81
2023/01/13 07:40:19;;;;;;;22.02;11.35;;;;;;;8.13;60.54;98905.19;4424415;32;20129;-81
2023/01/13 07:45:28;;;;;;;14.60;6.57;;;;;;;8.31;60.50;98911.44;4424308;32;20103;-82
2023/01/13 07:47:53;;;;;;;17.15;6.47;;;;;;;8.02;61.38;98914.38;4410445;32;20082;-81
2023/01/13 07:50:20;;;;;;;13.23;5.65;;;;;;;8.20;61.42;98919.78;4410501;32;20133;-81
2023/01/13 07:52:45;;;;;;;12.63;5.30;;;;;;;8.52;60.53;98913.16;4424193;32;20097;-81
2023/01/13 07:55:11;;;;;;;17.40;5.30;;;;;;;8.62;60.15;98906.56;4410129;32;20112;-81
2023/01/13 07:57:36;;;;;;;16.08;4.78;;;;;;;8.26;60.93;98917.72;4424206;32;20086;-82
2023/01/13 08:00:03;;;;;;;15.45;5.22;;;;;;;8.64;59.78;98917.00;4423876;32;20085;-81
2023/01/13 08:02:29;;;;;;;12.43;5.10;;;;;;;8.91;58.94;98921.94;4424117;32;20111;-81
2023/01/13 08:04:54;;;;;;;14.87;5.60;;;;;;;8.85;59.02;98920.44;4424066;32;20167;-81
2023/01/13 08:07:20;;;;;;;13.35;5.10;;;;;;;8.60;59.71;98926.78;4424000;32;20097;-81
2023/01/13 08:09:45;;;;;;;15.43;5.93;;;;;;;8.91;58.84;98922.78;4409823;32;20124;-81
2023/01/13 08:14:54;;;;;;;14.68;6.35;;;;;;;8.81;58.69;98932.03;4412240;32;20467;-81
2023/01/13 08:17:20;;;;;;;14.02;6.53;;;;;;;8.97;58.13;98940.06;4410046;32;20086;-82
2023/01/13 08:19:45;;;;;;;17.80;7.53;;;;;;;9.15;57.56;98939.19;4423785;32;20408;-82
2023/01/13 08:22:11;;;;;;;17.83;7.43;;;;;;;9.27;57.00;98936.91;4423892;32;20116;-81
2023/01/13 08:24:36;;;;;;;16.73;7.65;;;;;;;9.33;56.57;98932.25;4423448;32;20129;-81
2023/01/13 08:27:02;;;;;;;18.20;8.63;;;;;;;9.37;56.43;98938.22;4423922;32;20165;-81
2023/01/13 08:29:27;;;;;;;17.92;9.25;;;;;;;9.44;56.29;98936.97;4423999;32;20354;-81
2023/01/13 08:31:52;;;;;;;20.77;9.40;;;;;;;9.51;56.24;98940.19;4423889;32;20089;-81
2023/01/13 08:34:18;;;;;;;20.90;10.38;;;;;;;9.57;55.74;98938.09;4409794;32;20086;-81
2023/01/13 08:36:43;;;;;;;20.23;9.77;;;;;;;9.61;55.21;98934.37;4423524;32;20109;-81
2023/01/13 08:39:09;;;;;;;21.98;9.85;;;;;;;9.44;55.27;98952.75;4423509;32;20140;-81
2023/01/13 08:44:18;;;;;;;21.90;11.18;;;;;;;9.41;55.05;98945.88;4423542;32;20124;-81
2023/01/13 08:46:43;;;;;;;20.98;11.02;;;;;;;9.48;54.73;98949.06;4423259;32;20085;-81
2023/01/13 08:49:09;;;;;;;22.13;11.45;;;;;;;9.32;54.93;98945.47;4423336;32;20086;-81
2023/01/13 08:51:34;;;;;;;21.55;11.38;;;;;;;8.75;56.01;98951.53;4409649;32;20101;-81
2023/01/13 08:54:00;;;;;;;21.67;11.55;;;;;;;8.57;56.72;98955.81;4424683;32;20105;-81
2023/01/13 08:56:26;;;;;;;22.40;11.88;;;;;;;8.73;56.08;98958.63;4425664;32;20113;-81
2023/01/13 08:58:51;;;;;;;23.55;12.25;;;;;;;8.32;57.22;98955.97;4425652;32;20098;-81
2023/01/13 09:01:20;;;;;;;25.00;12.77;;;;;;;8.74;56.05;98962.94;4411794;32;20124;-81
2023/01/13 09:03:46;;;;;;;23.83;13.20;;;;;;;8.70;56.24;98965.78;4425670;32;20101;-81
2023/01/13 09:06:11;;;;;;;26.02;14.13;;;;;;;8.33;56.99;98956.84;4425598;32;20335;-81
2023/01/13 09:08:37;;;;;;;25.02;12.02;;;;;;;8.37;56.67;98959.28;4411398;32;20128;-81
2023/01/13 09:13:10;;;;;;;24.85;13.07;;;;;;;7.94;58.20;98966.31;4425619;32;20101;-81
2023/01/13 09:13:47;;;;;;;22.45;11.70;;;;;;;8.38;57.04;98954.88;4425562;32;20086;-81
2023/01/13 09:16:13;;;;;;;21.58;11.77;;;;;;;8.48;56.89;98947.47;4425421;32;20102;-81
2023/01/13 09:18:38;;;;;;;20.20;11.85;;;;;;;7.37;60.04;98954.63;4411502;32;20137;-81
2023/01/13 09:21:04;;;;;;;20.08;10.68;;;;;;;8.22;57.95;98945.03;4425603;32;20089;-81
2023/01/13 09:23:29;;;;;;;22.37;11.02;;;;;;;7.82;59.22;98935.34;4425513;32;20082;-81
2023/01/13 09:25:54;;;;;;;19.08;10.48;;;;;;;8.55;57.47;98941.03;4425478;32;20070;-81
2023/01/13 09:28:20;;;;;;;20.90;10.15;;;;;;;8.79;56.77;98947.00;4425391;32;20469;-81
2023/01/13 09:30:45;;;;;;;21.98;10.90;;;;;;;8.78;56.89;98937.41;4425426;32;20085;-81
2023/01/13 09:36:00;;;;;;;22.67;12.10;;;;;;;8.87;57.42;98947.50;4425404;32;20158;-81
2023/01/13 09:38:26;;;;;;;22.75;13.10;;;;;;;9.26;56.43;98946.59;4411426;32;20094;-82
2023/01/13 09:40:52;;;;;;;22.77;11.52;;;;;;;9.14;56.36;98945.38;4425334;32;20120;-81
2023/01/13 09:46:42;;;;;;;22.27;11.70;;;;;;;9.36;55.28;98933.87;4425298;32;20120;-81
2023/01/13 09:49:02;;;;;;;22.60;12.60;;;;;;;9.62;54.70;98938.75;4425215;32;20173;-81
2023/01/13 09:51:36;;;;;;;21.50;11.55;;;;;;;9.75;54.21;98925.81;4425333;32;20098;-81
2023/01/13 09:54:09;;;;;;;20.58;11.48;;;;;;;9.87;54.16;98928.78;4411461;32;20102;-81
2023/01/13 09:56:34;;;;;;;18.33;9.70;;;;;;;9.88;53.98;98925.25;4411379;32;20077;-82
2023/01/13 09:59:00;;;;;;;20.62;10.23;;;;;;;9.63;54.24;98923.81;4410976;32;20136;-81
2023/01/13 10:01:50;;;;;;;19.87;10.25;;;;;;;9.47;55.28;98928.13;4425141;32;20142;-82
2023/01/13 10:04:16;;;;;;;19.37;10.15;;;;;;;9.74;54.67;98921.50;4425141;32;20108;-81
2023/01/13 10:06:45;;;;;;;18.77;8.77;;;;;;;9.86;54.56;98921.84;4424452;32;20078;-81
2023/01/13 10:09:20;;;;;;;21.75;10.63;;;;;;;9.91;54.46;98923.31;4411211;32;20094;-81
2023/01/13 10:14:42;;;;;;;23.33;11.15;;;;;;;10.12;54.00;98918.75;4413461;32;20107;-81
2023/01/13 10:17:17;;;;;;;20.17;11.10;;;;;;;10.25;53.64;98918.97;4411392;32;20077;-82
2023/01/13 10:19:48;;;;;;;20.90;9.98;;;;;;;10.35;53.14;98924.66;4411288;32;20133;-81
2023/01/13 10:22:16;;;;;;;20.33;10.65;;;;;;;10.35;53.02;98922.88;4425180;32;20559;-81
2023/01/13 10:25:04;;;;;;;19.52;10.07;;;;;;;10.55;52.56;98919.19;4425168;32;20089;-81
2023/01/13 10:27:36;;;;;;;19.67;10.82;;;;;;;8.99;56.78;98927.69;4424992;32;20129;-81
2023/01/13 10:30:14;;;;;;;20.00;9.77;;;;;;;9.38;55.75;98924.97;4425043;32;20105;-81
2023/01/13 10:32:42;;;;;;;19.00;9.82;;;;;;;9.83;54.57;98917.56;4424978;32;20098;-81
2023/01/13 10:35:07;;;;;;;18.75;9.32;;;;;;;10.10;54.17;98918.00;4398434;32;20107;-81
2023/01/13 10:37:32;;;;;;;19.70;9.50;;;;;;;9.94;54.40;98911.78;4411151;32;20083;-81
2023/01/13 10:40:01;;;;;;;19.55;9.98;;;;;;;9.93;54.51;98912.69;4425022;32;20128;-81
2023/01/13 10:42:26;;;;;;;18.77;10.05;;;;;;;9.72;55.19;98909.38;4411094;32;20125;-81
2023/01/13 10:44:57;;;;;;;21.20;10.07;;;;;;;9.72;55.21;98904.09;4411143;32;20107;-82
2023/01/13 10:47:28;;;;;;;20.45;10.10;;;;;;;10.04;53.91;98898.09;4411092;32;20093;-81
2023/01/13 10:50:11;;;;;;;20.62;9.70;;;;;;;9.73;54.86;98898.75;4425002;32;20114;-81
2023/01/13 10:52:42;;;;;;;20.73;9.48;;;;;;;10.03;54.35;98892.91;4424928;32;20166;-81
2023/01/13 10:55:29;;;;;;;20.33;10.02;;;;;;;10.37;53.61;98886.78;4411253;32;20163;-82
2023/01/13 10:57:54;;;;;;;22.27;11.10;;;;;;;9.96;54.18;98883.59;4411376;32;20519;-81
2023/01/13 11:00:32;;;;;;;23.95;12.07;;;;;;;9.68;54.91;98882.34;4424928;32;20085;-81
2023/01/13 11:03:12;;;;;;;24.60;12.07;;;;;;;9.94;54.35;98880.19;4411041;32;20105;-81
2023/01/13 11:05:38;;;;;;;24.00;13.07;;;;;;;10.26;53.36;98875.03;4424788;32;20082;-81
2023/01/13 11:08:04;;;;;;;22.87;12.05;;;;;;;10.02;53.49;98865.72;4397989;32;20396;-81
2023/01/13 11:10:31;;;;;;;24.60;12.20;;;;;;;10.10;53.55;98859.19;4424776;32;20120;-82
2023/01/13 11:13:17;;;;;;;24.95;13.65;;;;;;;10.11;53.48;98863.56;4411029;32;20158;-81
2023/01/13 11:16:09;;;;;;;26.45;12.73;;;;;;;10.08;53.58;98856.63;4410686;32;20370;-81
2023/01/13 11:18:39;;;;;;;23.15;11.52;;;;;;;9.94;54.08;98854.72;4424558;32;20116;-81
2023/01/13 11:21:26;;;;;;;22.73;11.95;;;;;;;10.01;53.84;98852.66;4424826;32;20089;-81
2023/01/13 11:24:11;;;;;;;22.42;11.55;;;;;;;9.48;54.93;98854.38;4410639;32;20124;-81
2023/01/13 11:26:43;;;;;;;25.67;11.35;;;;;;;9.98;54.23;98844.91;4410769;32;20107;-81
2023/01/13 11:29:19;;;;;;;24.48;12.05;;;;;;;9.99;53.79;98846.59;4410655;32;20078;-82
2023/01/13 11:31:53;;;;;;;24.90;12.52;;;;;;;9.93;54.24;98845.13;4424659;32;20097;-81
2023/01/13 11:34:36;;;;;;;25.73;12.25;;;;;;;9.95;54.13;98848.53;4410642;32;20134;-81
2023/01/13 11:37:08;;;;;;;24.80;11.63;;;;;;;10.05;53.91;98854.19;4424531;32;20090;-81
2023/01/13 11:39:55;;;;;;;22.73;11.70;;;;;;;10.31;53.51;98847.59;4410471;32;20078;-82
2023/01/13 11:42:29;;;;;;;25.02;12.85;;;;;;;10.38;53.01;98850.75;4424512;32;20120;-81
2023/01/13 11:45:17;;;;;;;25.95;11.73;;;;;;;10.42;52.51;98857.56;4410577;32;20093;-81
2023/01/13 11:47:48;;;;;;;24.73;11.68;;;;;;;10.41;52.47;98854.09;4424368;32;20089;-82
2023/01/13 11:50:17;;;;;;;23.02;12.70;;;;;;;10.41;52.47;98846.19;4410417;32;20134;-82
2023/01/13 11:53:00;;;;;;;24.33;12.45;;;;;;;10.48;52.32;98837.97;4424276;32;20217;-82
2023/01/13 11:55:52;;;;;;;27.40;12.90;;;;;;;10.51;51.92;98830.75;4424204;32;20128;-82
2023/01/13 11:58:36;;;;;;;27.45;13.40;;;;;;;9.83;53.52;98825.47;4410465;32;20077;-82
2023/01/13 12:01:18;;;;;;;26.25;12.70;;;;;;;10.29;52.52;98820.44;4424236;32;20074;-82
2023/01/13 12:04:21;;;;;;;27.40;13.23;;;;;;;10.36;52.50;98810.50;4410537;32;20102;-82
2023/01/13 12:07:12;;;;;;;29.42;14.35;;;;;;;9.81;53.49;98814.16;4424248;32;20077;-82
2023/01/13 12:10:02;;;;;;;28.98;14.55;;;;;;;10.00;53.29;98799.13;4424086;32;20097;-82
2023/01/13 12:12:31;;;;;;;28.30;13.52;;;;;;;10.13;53.29;98790.63;4410227;32;20082;-82
2023/01/13 12:15:20;;;;;;;27.17;14.55;;;;;;;10.09;53.32;98783.81;4423910;32;20159;-82
2023/01/13 12:17:48;;;;;;;30.63;14.33;;;;;;;10.11;53.50;98777.53;4424163;32;20153;-82
2023/01/13 12:20:20;;;;;;;;;;;;;;;10.02;53.66;98770.97;4424207;32;20283;-82
2023/01/13 12:22:47;;;;;;;29.10;14.82;;;;;;;9.57;54.60;98782.09;4410132;32;19983;-82
2023/01/13 12:25:19;;;;;;;31.08;14.07;;;;;;;9.72;54.29;98776.03;4423693;32;20140;-82
2023/01/13 12:27:50;;;;;;;31.08;14.85;;;;;;;9.83;54.07;98775.47;4409975;32;20110;-82
2023/01/13 12:30:26;;;;;;;29.12;14.68;;;;;;;9.90;53.74;98774.22;4425920;32;20112;-82
2023/01/13 12:32:58;;;;;;;31.87;15.38;;;;;;;9.89;53.81;98772.56;4412227;32;20089;-82